Date,TemperatureHighF,TemperatureAvgF,TemperatureLowF,DewpointHighF,DewpointAvgF,DewpointLowF,HumidityHigh,HumidityAvg,HumidityLow,PressureMaxIn,PressureMinIn,WindSpeedMaxMPH,WindSpeedAvgMPH,GustSpeedMaxMPH,PrecipitationSumIn
2013-10-1,80,61,47,0,0,0,0,0,100,29.95,29.81,12,1,12,0.01
2013-10-2,82,68,56,0,0,0,0,0,100,29.90,29.77,16,3,17,0.00
2013-10-3,82,66,56,0,0,0,0,0,100,30.05,29.90,10,1,11,0.00
2013-10-4,66,60,53,0,0,0,0,0,100,30.07,30.01,9,1,10,0.00
2013-10-5,65,60,58,0,0,0,0,0,100,30.11,30.03,16,3,18,0.00
2013-10-6,59,56,54,0,0,0,0,0,100,30.23,30.10,24,8,24,0.16
2013-10-7,71,63,57,0,0,0,0,0,100,30.13,29.78,19,4,23,0.10
2013-10-8,67,56,47,0,0,0,0,0,100,30.36,30.18,16,2,16,0.00
2013-10-9,65,52,42,0,0,0,0,0,100,30.46,30.35,14,2,15,0.00
2013-10-10,64,52,42,0,0,0,0,0,100,30.35,30.17,10,2,10,0.00
2013-10-11,70,56,48,0,0,0,0,0,100,30.17,30.09,12,2,12,0.00
2013-10-12,57,55,50,0,0,0,0,0,100,30.39,30.13,23,6,24,0.00
2013-10-13,65,53,44,0,0,0,0,0,100,30.44,30.37,10,1,12,0.01
2013-10-14,66,52,40,0,0,0,0,0,100,30.38,30.22,14,3,15,0.00
2013-10-15,60,57,54,0,0,0,0,0,100,30.25,30.18,13,1,14,0.00
2013-10-17,65,60,58,0,0,0,0,0,100,29.74,29.68,6,0,6,0.00
2013-10-18,70,61,53,0,0,0,0,0,100,29.86,29.56,30,5,30,0.10
2013-10-19,71,57,45,0,0,0,0,0,100,29.94,29.73,15,4,15,0.00
2013-10-20,66,55,48,0,0,0,0,0,100,29.98,29.66,24,5,27,0.00
2013-10-21,71,53,40,0,0,0,0,0,100,30.09,29.97,15,3,15,0.00
2013-10-22,68,55,48,0,0,0,0,0,100,29.97,29.68,20,2,20,0.00
2013-10-23,59,48,40,0,0,0,0,0,100,29.77,29.56,9,1,10,0.00
2013-10-24,57,47,40,0,0,0,0,0,100,29.84,29.59,23,6,28,0.00
2013-10-25,52,42,35,0,0,0,0,0,100,30.12,29.84,22,4,22,0.00
2013-10-26,55,45,34,0,0,0,0,0,100,30.13,29.85,23,6,24,0.00
2013-10-27,58,48,40,0,0,0,0,0,100,30.02,29.79,19,5,23,0.04
2013-10-28,61,46,37,0,0,0,0,0,100,30.33,30.02,24,6,26,0.00
2013-10-29,53,39,29,0,0,0,0,0,100,30.44,30.33,11,2,11,0.00
2013-10-30,50,40,34,0,0,0,0,0,100,30.35,30.18,10,1,11,0.02
2013-10-31,61,47,33,0,0,0,0,0,100,30.22,29.76,20,2,21,0.10